Time;durP1;ratioP1;P1;durP2;ratioP2;P2;SDS_P1;SDS_P2;PMS_P1;PMS_P2;Temp;Humidity;BMP_temperature;BMP_pressure;BME280_temperature;BME280_humidity;BME280_pressure;Samples;Min_cycle;Max_cycle;Signal;HPM_P1;HPM_P2
2023/10/12 00:01:14;;;;;;;;;7.00;6.20;;;;;20.58;55.76;99413.28;5093888;28;8834;-59
2023/10/12 00:03:44;;;;;;;;;6.60;6.60;;;;;20.58;55.60;99423.25;5090351;28;8940;-60
2023/10/12 00:06:13;;;;;;;;;10.00;8.00;;;;;20.56;56.18;99419.91;5086235;28;8933;-57
2023/10/12 00:08:41;;;;;;;;;5.80;5.80;;;;;20.56;56.18;99418.03;5094201;28;8842;-59
2023/10/12 00:11:09;;;;;;;;;9.20;9.20;;;;;20.55;55.83;99400.13;5097144;28;8818;-57
2023/10/12 00:13:41;;;;;;;;;7.40;7.40;;;;;20.56;55.85;99400.97;5098173;28;8860;-58
2023/10/12 00:16:10;;;;;;;;;6.20;5.00;;;;;20.54;56.15;99406.59;5098690;28;8830;-59
2023/10/12 00:18:38;;;;;;;;;9.20;7.00;;;;;20.54;56.29;99413.88;5098296;28;8964;-59
2023/10/12 00:21:14;;;;;;;;;5.00;5.00;;;;;20.54;56.29;99412.00;5098123;28;8837;-58
2023/10/12 00:23:44;;;;;;;;;4.80;4.80;;;;;20.53;56.21;99394.09;5098154;28;8845;-56
2023/10/12 00:26:12;;;;;;;;;4.00;3.60;;;;;20.51;56.35;99398.88;5098375;28;8846;-59
2023/10/12 00:28:39;;;;;;;;;7.20;7.00;;;;;20.49;56.13;99406.31;5097909;28;8855;-59
2023/10/12 00:31:18;;;;;;;;;7.60;7.60;;;;;20.49;56.65;99409.03;5098246;28;9484;-58
2023/10/12 00:33:48;;;;;;;;;7.60;7.20;;;;;20.49;56.41;99403.63;5097846;28;8848;-60
2023/10/12 00:36:25;;;;;;;;;7.20;7.00;;;;;20.50;56.30;99413.44;5097723;28;8845;-58
2023/10/12 00:38:53;;;;;;;;;7.00;7.00;;;;;20.46;56.29;99406.72;5098175;28;8822;-57
2023/10/12 00:41:36;;;;;;;;;1.00;1.00;;;;;20.35;56.61;99404.59;5097962;28;8814;-57
2023/10/12 00:44:08;;;;;;;;;7.40;6.60;;;;;20.16;57.20;99399.84;5096740;28;8836;-60
2023/10/12 00:46:58;;;;;;;;;7.00;6.60;;;;;19.91;57.84;99398.56;5098237;28;9523;-57
2023/10/12 00:49:29;;;;;;;;;6.60;6.60;;;;;19.79;57.90;99397.41;5097669;28;8810;-58
2023/10/12 00:52:08;;;;;;;;;7.20;6.80;;;;;19.79;57.84;99386.59;5097332;28;8944;-57
2023/10/12 00:54:43;;;;;;;;;9.80;7.80;;;;;19.72;58.47;99393.81;5097296;28;8842;-57
2023/10/12 00:57:11;;;;;;;;;7.00;7.00;;;;;19.62;58.74;99403.25;5096830;28;8923;-57
2023/10/12 00:59:39;;;;;;;;;7.20;7.20;;;;;19.58;58.49;99394.69;5097260;28;8821;-57
2023/10/12 01:02:12;;;;;;;;;8.20;7.40;;;;;19.56;58.43;99394.06;5097325;28;8853;-59
2023/10/12 01:04:39;;;;;;;;;7.40;7.20;;;;;19.45;58.86;99383.78;5110489;28;9742;-58
2023/10/12 01:07:07;;;;;;;;;5.80;5.40;;;;;19.28;58.73;99374.22;5110449;28;8814;-57
2023/10/12 01:09:43;;;;;;;;;8.20;7.60;;;;;19.01;59.78;99383.03;5098680;28;8814;-57
2023/10/12 01:12:14;;;;;;;;;10.40;10.00;;;;;18.73;60.80;99387.44;5103564;28;8842;-59
2023/10/12 01:14:43;;;;;;;;;10.00;8.80;;;;;18.55;61.19;99394.22;5117048;28;8840;-58
2023/10/12 01:17:16;;;;;;;;;7.00;7.00;;;;;18.36;61.65;99398.31;5116848;28;9501;-59
2023/10/12 01:23:04;;;;;;;;;8.60;8.40;;;;;18.07;62.02;99400.09;5105105;28;8790;-58
2023/10/12 01:25:39;;;;;;;;;6.20;6.00;;;;;17.97;63.00;99405.72;5097032;28;8818;-57
2023/10/12 01:28:12;;;;;;;;;9.00;8.20;;;;;17.97;62.30;99415.66;5097144;28;8833;-57
2023/10/12 01:30:40;;;;;;;;;6.00;6.00;;;;;18.04;62.17;99422.00;5096034;28;9506;-57
2023/10/12 01:33:09;;;;;;;;;9.40;9.40;;;;;18.14;62.39;99436.09;5097039;28;8830;-57
2023/10/12 01:35:39;;;;;;;;;9.20;8.60;;;;;18.22;62.17;99425.22;5096528;28;8837;-58
2023/10/12 01:38:08;;;;;;;;;12.80;11.20;;;;;18.26;62.05;99427.38;5096738;28;8956;-58
2023/10/12 01:40:52;;;;;;;;;8.60;7.00;;;;;18.29;61.72;99429.69;5096098;28;8825;-59
2023/10/12 01:43:20;;;;;;;;;6.00;6.00;;;;;18.33;61.55;99443.66;5096636;28;8876;-59
2023/10/12 01:45:54;;;;;;;;;9.20;9.20;;;;;18.37;61.47;99442.28;5096263;28;8842;-59
2023/10/12 01:48:23;;;;;;;;;8.80;7.00;;;;;18.42;61.36;99446.09;5097106;28;9512;-57
2023/10/12 01:50:51;;;;;;;;;9.00;9.00;;;;;18.46;61.41;99436.66;5096174;28;8844;-59
2023/10/12 01:53:26;;;;;;;;;9.00;8.20;;;;;18.51;61.17;99436.09;5095725;28;8825;-57
2023/10/12 01:55:54;;;;;;;;;7.00;7.00;;;;;18.54;61.63;99431.16;5096193;28;8838;-57
2023/10/12 01:58:23;;;;;;;;;8.60;8.60;;;;;18.54;61.58;99436.56;5096544;28;8830;-58
2023/10/12 02:00:52;;;;;;;;;6.00;6.00;;;;;18.50;61.59;99451.41;5096294;28;8837;-59
2023/10/12 02:03:26;;;;;;;;;7.40;7.00;;;;;18.49;61.55;99451.59;5097042;28;8848;-57
2023/10/12 02:06:00;;;;;;;;;6.20;6.00;;;;;18.40;61.77;99453.56;5096056;28;8830;-58
2023/10/12 02:08:32;;;;;;;;;6.40;6.40;;;;;18.22;62.37;99463.78;5095911;28;9519;-59
2023/10/12 02:11:06;;;;;;;;;9.40;9.00;;;;;18.04;62.63;99475.91;5096475;28;8838;-57
2023/10/12 02:13:35;;;;;;;;;6.00;6.00;;;;;17.89;62.91;99492.03;5096194;28;8830;-57
2023/10/12 02:16:02;;;;;;;;;7.80;7.80;;;;;17.79;63.44;99491.44;5096144;28;8865;-58
2023/10/12 02:18:32;;;;;;;;;8.40;7.40;;;;;17.72;63.89;99498.53;5096339;28;8952;-57
2023/10/12 02:21:07;;;;;;;;;7.00;6.80;;;;;17.63;64.14;99510.34;5095754;28;8830;-59
2023/10/12 02:23:38;;;;;;;;;9.40;9.20;;;;;17.53;64.23;99515.13;5107518;28;8812;-56
2023/10/12 02:26:28;;;;;;;;;7.00;7.00;;;;;17.41;64.21;99515.72;5099003;28;8805;-59
2023/10/12 02:29:00;;;;;;;;;7.80;7.00;;;;;17.27;64.66;99528.03;5104558;28;8820;-57
2023/10/12 02:31:28;;;;;;;;;9.20;9.00;;;;;17.17;65.19;99532.75;5103695;28;8810;-58
2023/10/12 02:33:56;;;;;;;;;12.00;9.60;;;;;17.05;65.43;99526.09;5094987;28;8914;-57
2023/10/12 02:36:28;;;;;;;;;12.40;10.00;;;;;16.94;65.79;99533.69;5094455;28;8935;-58
2023/10/12 02:39:00;;;;;;;;;9.60;9.00;;;;;16.82;65.93;99535.91;5095632;28;8818;-57
2023/10/12 02:41:28;;;;;;;;;10.20;7.80;;;;;16.73;66.35;99547.69;5095558;28;8940;-60
2023/10/12 02:44:11;;;;;;;;;9.40;9.20;;;;;16.66;65.98;99564.66;5095276;28;8822;-59
2023/10/12 02:46:48;;;;;;;;;6.60;6.60;;;;;16.60;66.64;99562.66;5095053;28;8810;-58
2023/10/12 02:49:16;;;;;;;;;10.40;9.20;;;;;16.52;66.78;99558.13;5095605;28;8848;-59
2023/10/12 02:51:45;;;;;;;;;9.40;9.40;;;;;16.48;66.77;99564.84;5095111;28;8873;-59
2023/10/12 02:54:15;;;;;;;;;6.60;6.20;;;;;16.44;66.86;99560.81;5095646;28;8865;-59
2023/10/12 02:56:47;;;;;;;;;4.00;3.20;;;;;16.41;66.84;99574.56;5094456;28;8830;-59
2023/10/12 02:59:17;;;;;;;;;7.80;7.00;;;;;16.39;67.41;99576.59;5095575;28;8826;-57
2023/10/12 03:01:49;;;;;;;;;8.60;8.60;;;;;16.38;67.27;99568.69;5095021;28;8852;-57
2023/10/12 03:04:17;;;;;;;;;7.00;7.00;;;;;16.36;67.14;99570.69;5095530;28;8818;-57
2023/10/12 03:06:55;;;;;;;;;9.75;9.50;;;;;16.35;68.03;99567.16;5094746;28;8887;-59
2023/10/12 03:09:36;;;;;;;;;9.00;7.00;;;;;16.31;67.42;99570.34;5095066;28;8899;-59
2023/10/12 03:12:04;;;;;;;;;9.75;9.50;;;;;16.28;67.44;99582.28;5095077;28;8880;-56
2023/10/12 03:14:35;;;;;;;;;8.00;8.00;;;;;16.27;67.59;99582.44;5095372;28;8908;-57
2023/10/12 03:17:06;;;;;;;;;9.00;7.50;;;;;16.26;67.90;99576.22;5095286;28;8853;-59
2023/10/12 03:19:38;;;;;;;;;12.25;11.00;;;;;16.23;68.44;99579.25;5095188;28;8840;-59
2023/10/12 03:22:19;;;;;;;;;9.50;9.50;;;;;16.20;68.07;99579.56;5094877;28;8833;-59
2023/10/12 03:24:51;;;;;;;;;10.00;9.50;;;;;16.19;68.76;99558.25;5094457;28;8822;-58
2023/10/12 03:27:22;;;;;;;;;7.00;6.50;;;;;16.17;68.62;99563.78;5094834;28;8838;-59
2023/10/12 03:30:06;;;;;;;;;9.75;9.50;;;;;16.16;68.88;99555.88;5094528;28;8850;-57
2023/10/12 03:32:34;;;;;;;;;13.00;12.00;;;;;16.16;69.10;99538.94;5112215;28;8808;-59
2023/10/12 03:35:00;;;;;;;;;6.75;6.75;;;;;16.16;68.92;99547.00;5102679;28;8893;-57
2023/10/12 03:37:50;;;;;;;;;11.00;10.50;;;;;16.16;69.23;99536.25;5098303;28;8818;-58
2023/10/12 03:43:12;;;;;;;;;12.50;9.00;;;;;16.22;69.66;99535.59;5084314;28;8834;-59
2023/10/12 03:45:50;;;;;;;;;17.25;10.50;;;;;16.25;69.41;99520.81;5099830;28;9800;-57
2023/10/12 03:48:26;;;;;;;;;13.00;12.00;;;;;16.24;68.99;99520.97;5098594;28;8899;-57
2023/10/12 03:53:45;;;;;;;;;6.75;6.50;;;;;16.14;69.29;99506.03;5097494;28;8853;-59
2023/10/12 03:56:14;;;;;;;;;9.50;8.00;;;;;16.09;70.05;99503.81;5098999;28;8899;-59
2023/10/12 03:58:47;;;;;;;;;14.50;11.00;;;;;16.09;70.24;99511.06;5098744;28;8849;-58
2023/10/12 04:01:23;;;;;;;;;11.00;10.00;;;;;16.06;69.79;99514.06;5098669;28;8833;-57
2023/10/12 04:04:08;;;;;;;;;11.50;11.00;;;;;16.02;70.17;99500.16;5098581;28;8826;-57
2023/10/12 04:07:04;;;;;;;;;10.50;10.00;;;;;15.98;70.41;99500.63;5098006;28;8842;-58
2023/10/12 04:09:42;;;;;;;;;11.50;11.50;;;;;15.92;71.18;99509.38;5098400;28;8818;-57
2023/10/12 04:12:19;;;;;;;;;11.00;10.00;;;;;15.90;71.31;99522.97;5098080;28;8844;-58
2023/10/12 04:14:49;;;;;;;;;11.00;9.75;;;;;15.87;71.33;99517.94;5097769;28;8992;-57
2023/10/12 04:20:14;;;;;;;;;5.00;3.50;;;;;15.83;71.50;99523.78;5097870;28;9581;-59
2023/10/12 04:23:13;;;;;;;;;13.75;11.00;;;;;15.80;72.06;99522.28;5098070;28;8834;-59
2023/10/12 04:25:45;;;;;;;;;12.00;10.00;;;;;15.76;72.20;99523.59;5097286;28;8838;-57
2023/10/12 04:28:17;;;;;;;;;14.00;12.50;;;;;15.74;72.63;99519.41;5097929;28;8818;-58
2023/10/12 04:31:20;;;;;;;;;9.00;7.50;;;;;15.72;72.53;99513.38;5096877;28;8834;-58
2023/10/12 04:33:49;;;;;;;;;15.00;14.50;;;;;15.70;72.60;99513.53;5097981;28;8879;-58
2023/10/12 04:36:23;;;;;;;;;9.50;9.00;;;;;15.68;72.82;99523.59;5117332;28;9539;-56
2023/10/12 04:38:58;;;;;;;;;11.00;9.00;;;;;15.67;73.26;99523.75;5116970;28;8819;-58
2023/10/12 04:41:41;;;;;;;;;12.00;12.00;;;;;15.67;73.30;99523.75;5105483;28;8818;-57
2023/10/12 04:44:35;;;;;;;;;12.75;11.00;;;;;15.67;73.29;99534.50;5097248;28;8830;-58
2023/10/12 04:47:06;;;;;;;;;8.00;8.00;;;;;15.66;73.21;99540.88;5079819;28;8824;-58
2023/10/12 04:52:24;;;;;;;;;15.25;13.50;;;;;15.63;73.79;99538.53;5077323;28;8816;-58
2023/10/12 04:55:19;;;;;;;;;11.50;9.00;;;;;15.63;73.41;99528.59;5107464;28;8804;-57
2023/10/12 04:58:17;;;;;;;;;16.50;13.50;;;;;15.63;73.75;99533.16;5096914;28;8853;-57
2023/10/12 05:00:55;;;;;;;;;11.50;9.50;;;;;15.62;73.37;99542.22;5096241;28;8822;-58
2023/10/12 05:03:35;;;;;;;;;9.50;8.25;;;;;15.62;73.74;99547.59;5096496;28;8902;-58
2023/10/12 05:06:08;;;;;;;;;9.00;9.00;;;;;15.62;73.27;99544.91;5096484;28;8818;-60
2023/10/12 05:08:37;;;;;;;;;12.00;11.50;;;;;15.62;73.80;99552.94;5096613;28;8834;-58
2023/10/12 05:11:09;;;;;;;;;9.00;8.00;;;;;15.60;73.85;99550.41;5096154;28;8834;-58
2023/10/12 05:13:43;;;;;;;;;7.50;7.00;;;;;15.61;73.48;99546.72;5096704;28;8834;-60
2023/10/12 05:16:14;;;;;;;;;9.00;9.00;;;;;15.60;73.72;99573.72;5096513;28;9803;-59
2023/10/12 05:18:42;;;;;;;;;9.00;9.00;;;;;15.60;73.62;99573.72;5096612;28;8916;-59
2023/10/12 05:21:10;;;;;;;;;12.00;10.00;;;;;15.60;73.26;99576.41;5096636;28;8822;-57
2023/10/12 05:23:39;;;;;;;;;11.75;10.00;;;;;15.59;73.07;99569.34;5096610;28;8922;-60
2023/10/12 05:26:10;;;;;;;;;12.00;8.00;;;;;15.58;74.13;99578.41;5096372;28;8829;-57
2023/10/12 05:28:47;;;;;;;;;10.25;9.75;;;;;15.57;73.72;99576.75;5096514;28;8840;-59
2023/10/12 05:31:20;;;;;;;;;11.00;9.00;;;;;15.55;73.94;99574.22;5096133;28;8818;-60
2023/10/12 05:36:46;;;;;;;;;6.00;5.50;;;;;15.53;74.82;99586.09;5096355;28;9520;-59
2023/10/12 05:39:13;;;;;;;;;9.50;8.50;;;;;15.52;74.30;99596.03;5095805;28;8874;-60
2023/10/12 05:41:41;;;;;;;;;12.50;9.25;;;;;15.51;74.79;99598.84;5094674;28;8872;-60
2023/10/12 05:44:16;;;;;;;;;12.00;10.00;;;;;15.52;74.60;99613.97;5094710;28;9010;-57
2023/10/12 05:46:51;;;;;;;;;9.00;7.00;;;;;15.51;74.29;99613.13;5094433;28;9500;-58
2023/10/12 05:49:23;;;;;;;;;7.00;6.50;;;;;15.51;74.95;99607.75;5094549;28;8826;-60
2023/10/12 05:51:51;;;;;;;;;9.50;9.25;;;;;15.51;74.99;99606.91;5094344;28;9496;-58
2023/10/12 05:54:20;;;;;;;;;6.75;6.75;;;;;15.50;75.07;99611.44;5094363;28;8977;-60
2023/10/12 05:56:51;;;;;;;;;9.00;7.00;;;;;15.49;75.28;99614.28;5112730;28;8848;-59
2023/10/12 05:59:20;;;;;;;;;6.25;6.25;;;;;15.48;75.50;99612.63;5115323;28;8900;-58
2023/10/12 06:01:48;;;;;;;;;9.00;7.50;;;;;15.47;75.31;99609.06;5100088;28;8817;-59
2023/10/12 06:04:19;;;;;;;;;10.75;9.50;;;;;15.48;75.64;99604.56;5095536;28;8841;-60
2023/10/12 06:06:51;;;;;;;;;9.50;9.00;;;;;15.47;75.83;99603.72;5094582;28;8814;-59
2023/10/12 06:09:23;;;;;;;;;6.75;5.00;;;;;15.48;75.37;99609.94;5095199;28;8844;-57
2023/10/12 06:11:53;;;;;;;;;7.50;7.50;;;;;15.47;75.99;99598.34;5094927;28;8919;-60
2023/10/12 06:14:22;;;;;;;;;4.00;4.00;;;;;15.48;75.61;99602.69;5095058;28;8849;-60
2023/10/12 06:16:54;;;;;;;;;9.75;7.00;;;;;15.49;75.54;99600.88;5095079;28;8826;-60
2023/10/12 06:19:26;;;;;;;;;9.00;9.00;;;;;15.48;76.03;99599.19;5094577;28;8830;-58
2023/10/12 06:21:58;;;;;;;;;7.00;7.00;;;;;15.49;75.83;99606.25;5094868;28;8826;-58
2023/10/12 06:24:34;;;;;;;;;10.00;9.00;;;;;15.49;75.98;99606.25;5095214;28;8838;-57
2023/10/12 06:27:11;;;;;;;;;6.50;6.25;;;;;15.50;75.48;99603.41;5094459;28;8937;-59
2023/10/12 06:29:39;;;;;;;;;9.50;8.50;;;;;15.52;75.75;99611.28;5093891;28;8830;-59
2023/10/12 06:32:16;;;;;;;;;8.25;8.25;;;;;15.53;75.30;99607.56;5093931;28;9893;-58
2023/10/12 06:34:44;;;;;;;;;6.00;5.50;;;;;15.54;75.30;99617.34;5094765;28;9531;-57
2023/10/12 06:37:49;;;;;;;;;13.50;11.50;;;;;15.53;75.72;99608.44;5094850;28;8967;-60
2023/10/12 06:40:26;;;;;;;;;9.00;7.00;;;;;15.54;75.58;99606.59;5094659;28;8841;-59
2023/10/12 06:43:57;;;;;;;;;9.50;9.25;;;;;15.53;75.60;99602.22;5094649;28;8853;-59
2023/10/12 06:45:46;;;;;;;;;12.00;12.00;;;;;15.52;75.50;99613.97;5094547;28;8906;-58
2023/10/12 06:48:23;;;;;;;;;6.50;6.50;;;;;15.51;76.22;99613.13;5094745;28;8884;-59
2023/10/12 06:51:01;;;;;;;;;11.00;9.50;;;;;15.52;75.90;99620.19;5094270;28;8866;-58
2023/10/12 06:53:33;;;;;;;;;11.50;9.75;;;;;15.53;75.42;99621.00;5094087;28;9612;-58
2023/10/12 06:56:16;;;;;;;;;8.75;8.75;;;;;15.52;76.48;99622.00;5094336;28;8879;-58
2023/10/12 06:58:44;;;;;;;;;12.00;10.00;;;;;15.52;76.74;99633.59;5094014;28;8911;-59
2023/10/12 07:01:18;;;;;;;;;12.75;9.00;;;;;15.51;76.42;99620.34;5093789;28;8833;-58
2023/10/12 07:03:48;;;;;;;;;14.00;12.75;;;;;15.51;76.72;99623.00;5094421;28;8937;-58
2023/10/12 07:06:15;;;;;;;;;6.00;4.00;;;;;15.51;76.68;99633.75;5094923;28;8806;-58
2023/10/12 07:08:45;;;;;;;;;6.00;4.00;;;;;15.53;76.68;99634.41;5095248;28;8856;-57
2023/10/12 07:11:14;;;;;;;;;9.00;5.00;;;;;15.52;77.00;99644.34;5105547;28;8828;-60
2023/10/12 07:13:45;;;;;;;;;11.00;8.50;;;;;15.56;77.18;99644.84;5094372;28;8833;-58
2023/10/12 07:16:15;;;;;;;;;9.25;9.00;;;;;15.57;76.67;99641.16;5094174;28;8810;-60
2023/10/12 07:18:44;;;;;;;;;13.00;12.00;;;;;15.58;76.80;99646.38;5093895;28;8854;-60
2023/10/12 07:21:21;;;;;;;;;14.25;13.25;;;;;15.59;77.07;99639.16;5093975;28;8857;-58
2023/10/12 07:23:52;;;;;;;;;9.75;7.00;;;;;15.58;77.46;99642.84;5094012;28;9547;-58
2023/10/12 07:26:21;;;;;;;;;10.00;10.00;;;;;15.60;77.43;99648.88;5094003;28;8838;-58
2023/10/12 07:28:51;;;;;;;;;9.00;8.50;;;;;15.59;77.17;99650.75;5094572;28;8810;-59
2023/10/12 07:31:37;;;;;;;;;12.00;9.50;;;;;15.60;76.95;99639.00;5093246;28;8833;-57
2023/10/12 07:34:13;;;;;;;;;11.50;9.00;;;;;15.62;77.13;99654.97;5092574;28;8853;-59
2023/10/12 07:36:57;;;;;;;;;7.00;6.00;;;;;15.63;77.02;99653.94;5093501;28;8984;-57
2023/10/12 07:39:38;;;;;;;;;6.75;6.75;;;;;15.64;77.31;99664.50;5092851;28;8826;-59
2023/10/12 07:42:12;;;;;;;;;9.00;6.25;;;;;15.68;77.53;99659.66;5093112;28;9775;-59
2023/10/12 07:44:42;;;;;;;;;4.00;3.50;;;;;15.71;76.89;99664.72;5092113;28;8988;-58
2023/10/12 07:47:18;;;;;;;;;9.00;9.00;;;;;15.76;76.97;99673.16;5092435;28;9495;-57
2023/10/12 07:49:51;;;;;;;;;12.25;9.75;;;;;15.81;76.95;99673.47;5092974;28;8841;-58
2023/10/12 07:52:38;;;;;;;;;9.40;8.60;;;;;15.85;76.97;99673.00;5093464;28;8956;-57
2023/10/12 07:55:12;;;;;;;;;6.80;5.60;;;;;15.91;76.62;99683.09;5093832;28;8877;-58
2023/10/12 07:57:40;;;;;;;;;9.75;9.25;;;;;15.99;76.01;99680.44;5092893;28;8841;-59
2023/10/12 08:08:33;;;;;;;;;6.60;6.00;;;;;16.19;75.65;99677.31;5060256;28;8863;-59
2023/10/12 08:11:09;;;;;;;;;8.60;7.40;;;;;16.23;75.71;99670.63;5108354;28;8820;-60
2023/10/12 08:13:39;;;;;;;;;9.60;8.60;;;;;16.29;74.85;99669.09;5107040;28;8826;-60
2023/10/12 08:16:15;;;;;;;;;9.00;7.00;;;;;16.33;75.47;99673.97;5102402;28;8832;-59
2023/10/12 08:21:32;;;;;;;;;3.40;3.00;;;;;16.44;74.92;99679.09;5110111;28;8868;-59
2023/10/12 08:24:09;;;;;;;;;9.00;6.40;;;;;16.49;75.05;99674.03;5100570;28;8832;-60
2023/10/12 08:26:49;;;;;;;;;7.40;7.00;;;;;16.52;75.45;99679.09;5113766;28;8804;-58
2023/10/12 08:30:09;;;;;;;;;7.80;7.40;;;;;16.59;74.42;99687.34;5106178;28;8797;-59
2023/10/12 08:32:27;;;;;;;;;9.00;9.00;;;;;16.64;74.48;99687.69;5100101;28;8818;-57
2023/10/12 08:40:30;;;;;;;;;10.40;9.20;;;;;16.75;74.90;99685.50;5096629;28;8846;-59
2023/10/12 08:43:06;;;;;;;;;6.60;6.60;;;;;16.79;74.56;99686.84;5096654;28;8845;-58
2023/10/12 08:45:35;;;;;;;;;9.00;6.00;;;;;16.84;74.21;99684.50;5096989;28;8917;-60
2023/10/12 08:48:08;;;;;;;;;6.20;5.60;;;;;16.90;74.74;99689.22;5096245;28;8842;-58
2023/10/12 08:50:58;;;;;;;;;10.80;10.00;;;;;16.98;74.50;99689.22;5095997;28;8927;-58
2023/10/12 08:53:27;;;;;;;;;6.40;6.00;;;;;17.04;74.68;99691.22;5096579;28;8907;-59
2023/10/12 08:55:55;;;;;;;;;9.40;7.80;;;;;17.08;74.65;99697.13;5096088;28;8830;-60
2023/10/12 08:58:30;;;;;;;;;7.00;7.00;;;;;17.10;74.09;99684.31;5096376;28;8826;-59
2023/10/12 09:01:09;;;;;;;;;6.40;6.40;;;;;17.12;74.56;99698.44;5095129;28;9622;-58
2023/10/12 09:03:44;;;;;;;;;8.80;7.40;;;;;17.13;74.50;99697.44;5094978;28;8833;-58
2023/10/12 09:06:29;;;;;;;;;8.20;7.00;;;;;17.13;74.79;99700.97;5094832;28;8830;-60
2023/10/12 09:08:56;;;;;;;;;7.40;6.20;;;;;17.14;74.31;99699.09;5094887;28;8830;-60
2023/10/12 09:11:26;;;;;;;;;8.80;7.00;;;;;17.15;74.70;99701.63;5093703;28;8857;-60
2023/10/12 09:13:57;;;;;;;;;10.40;9.60;;;;;17.13;74.81;99694.75;5094735;28;8923;-60
2023/10/12 09:16:26;;;;;;;;;7.00;7.00;;;;;17.08;74.50;99702.50;5094816;28;8837;-58
2023/10/12 09:18:59;;;;;;;;;10.00;9.80;;;;;17.00;75.11;99708.72;5094072;28;8846;-60
2023/10/12 09:21:38;;;;;;;;;6.80;6.80;;;;;16.99;75.29;99700.78;5093996;28;8853;-59
2023/10/12 09:24:14;;;;;;;;;3.00;1.00;;;;;17.04;75.28;99710.06;5094533;28;8854;-58
2023/10/12 09:26:49;;;;;;;;;8.20;8.20;;;;;17.11;74.85;99713.78;5094701;28;8830;-60
2023/10/12 09:29:24;;;;;;;;;9.60;9.00;;;;;17.18;74.80;99716.63;5093886;28;8830;-59
2023/10/12 09:37:33;;;;;;;;;8.60;7.00;;;;;17.40;73.53;99714.09;5094989;28;8846;-60
2023/10/12 09:40:04;;;;;;;;;6.40;6.00;;;;;17.48;73.71;99710.56;5095607;28;8842;-60
2023/10/12 09:42:34;;;;;;;;;9.00;8.20;;;;;17.57;73.75;99714.91;5094717;28;8830;-58
2023/10/12 09:45:05;;;;;;;;;9.20;7.00;;;;;17.61;73.54;99722.47;5095092;28;8845;-60
2023/10/12 09:47:50;;;;;;;;;4.00;4.00;;;;;17.67;73.70;99723.63;5094967;28;8922;-59
2023/10/12 09:50:18;;;;;;;;;9.60;8.20;;;;;17.67;73.66;99716.41;5094622;28;8834;-59
2023/10/12 09:52:57;;;;;;;;;12.20;9.60;;;;;17.68;74.05;99723.47;5094598;28;8949;-59
2023/10/12 09:55:26;;;;;;;;;7.40;6.80;;;;;17.62;73.93;99729.53;5094389;28;8968;-58
2023/10/12 09:58:00;;;;;;;;;5.60;5.60;;;;;17.45;74.22;99725.19;5094564;28;8822;-57
2023/10/12 10:00:55;;;;;;;;;5.20;5.20;;;;;17.31;74.77;99731.22;5094973;28;8899;-59
2023/10/12 10:03:19;;;;;;;;;6.40;6.00;;;;;17.20;74.68;99730.72;5094414;28;8834;-58
2023/10/12 10:05:54;;;;;;;;;3.80;3.00;;;;;17.19;75.18;99723.69;5094353;28;8841;-58
2023/10/12 10:08:29;;;;;;;;;1.00;0.60;;;;;17.18;75.14;99722.84;5095125;28;8814;-59
2023/10/12 10:10:58;;;;;;;;;8.60;7.00;;;;;17.14;75.14;99720.63;5094581;28;8860;-58
2023/10/12 10:13:26;;;;;;;;;1.40;1.00;;;;;17.13;75.37;99727.88;5095004;28;8846;-59
2023/10/12 10:15:56;;;;;;;;;7.00;7.00;;;;;17.16;74.82;99716.78;5094990;28;8862;-58
2023/10/12 10:18:25;;;;;;;;;9.80;9.60;;;;;17.22;74.88;99713.41;5094387;28;8845;-59
2023/10/12 10:20:58;;;;;;;;;7.00;7.00;;;;;17.32;74.77;99708.69;5094434;28;8903;-60
2023/10/12 10:23:25;;;;;;;;;6.80;6.20;;;;;17.42;74.28;99712.09;5094971;28;8956;-60
2023/10/12 10:25:56;;;;;;;;;12.40;11.60;;;;;17.53;73.79;99706.31;5094704;28;8818;-59
2023/10/12 10:28:27;;;;;;;;;10.00;10.00;;;;;17.64;73.88;99714.06;5094675;28;8838;-57
2023/10/12 10:30:56;;;;;;;;;9.00;8.20;;;;;17.73;73.68;99718.41;5094822;28;8826;-57
2023/10/12 10:33:24;;;;;;;;;9.00;8.60;;;;;17.80;73.45;99729.31;5095531;28;9591;-59
2023/10/12 10:35:52;;;;;;;;;7.00;7.00;;;;;17.82;73.50;99721.91;5109013;28;8812;-57
2023/10/12 10:38:24;;;;;;;;;7.00;6.50;;;;;17.83;73.18;99721.72;5101590;28;8897;-58
2023/10/12 10:40:58;;;;;;;;;9.80;9.40;;;;;17.84;73.29;99717.19;5100972;28;8887;-58
2023/10/12 10:43:27;;;;;;;;;9.40;7.80;;;;;17.85;72.94;99708.09;5093892;28;8838;-59
2023/10/12 10:45:56;;;;;;;;;3.80;3.20;;;;;17.87;73.23;99700.66;5093512;28;8830;-58
2023/10/12 10:48:28;;;;;;;;;9.00;8.20;;;;;17.89;73.70;99706.72;5093878;28;8943;-59
2023/10/12 10:51:04;;;;;;;;;8.60;8.20;;;;;17.91;73.72;99707.41;5093697;28;8827;-57
2023/10/12 10:53:36;;;;;;;;;5.80;5.20;;;;;17.95;73.12;99700.63;5093443;28;8858;-59
2023/10/12 10:56:14;;;;;;;;;6.60;6.00;;;;;17.99;73.21;99700.13;5093761;28;8873;-58
2023/10/12 10:58:45;;;;;;;;;7.40;7.40;;;;;18.06;72.79;99694.88;5093057;28;8830;-58
2023/10/12 11:01:20;;;;;;;;;7.80;7.00;;;;;18.12;72.77;99694.16;5092544;28;9547;-60
2023/10/12 11:03:50;;;;;;;;;12.80;12.40;;;;;18.14;73.07;99687.56;5091633;28;8830;-58
2023/10/12 11:06:22;;;;;;;;;6.60;6.20;;;;;18.21;72.63;99667.00;5092351;28;9612;-58
2023/10/12 11:09:01;;;;;;;;;12.60;9.00;;;;;18.31;72.26;99659.56;5091990;28;8867;-60
2023/10/12 11:11:38;;;;;;;;;9.00;7.40;;;;;18.45;72.11;99666.88;5092055;28;8841;-59
2023/10/12 11:14:05;;;;;;;;;10.00;9.00;;;;;18.55;72.15;99655.84;5092771;28;8946;-59
2023/10/12 11:16:33;;;;;;;;;7.00;7.00;;;;;18.62;72.11;99654.97;5092490;28;8859;-58
2023/10/12 11:19:03;;;;;;;;;7.40;7.00;;;;;18.70;71.92;99646.81;5093119;28;9504;-60
2023/10/12 11:21:31;;;;;;;;;7.00;6.00;;;;;18.74;72.02;99642.72;5092498;28;8852;-59
2023/10/12 11:23:58;;;;;;;;;4.00;4.00;;;;;18.80;71.87;99652.78;5092699;28;8834;-58
2023/10/12 11:26:26;;;;;;;;;7.00;7.00;;;;;18.85;72.04;99645.00;5093048;28;8836;-58
2023/10/12 11:28:56;;;;;;;;;8.20;5.60;;;;;18.88;71.57;99650.03;5093246;28;8853;-59
2023/10/12 11:31:31;;;;;;;;;9.80;9.20;;;;;18.87;71.76;99648.34;5092937;28;8952;-59
2023/10/12 11:33:59;;;;;;;;;8.20;7.00;;;;;18.88;71.46;99649.19;5092875;28;8937;-59
2023/10/12 11:36:27;;;;;;;;;7.00;6.00;;;;;18.89;72.08;99650.88;5093401;28;8918;-60
2023/10/12 11:38:55;;;;;;;;;6.60;6.00;;;;;18.90;71.24;99658.78;5093591;28;8826;-58
2023/10/12 11:41:23;;;;;;;;;4.40;4.40;;;;;18.86;71.91;99657.47;5098027;28;8816;-60
2023/10/12 11:43:53;;;;;;;;;9.80;7.00;;;;;18.84;72.07;99654.13;5103059;28;8818;-60
2023/10/12 11:46:21;;;;;;;;;10.00;9.80;;;;;18.81;71.96;99654.47;5109380;28;8816;-60
2023/10/12 11:48:49;;;;;;;;;7.00;6.40;;;;;18.78;72.20;99659.38;5073214;28;8989;-57
2023/10/12 11:51:20;;;;;;;;;7.00;6.00;;;;;18.76;72.31;99656.03;5086478;28;8823;-58
2023/10/12 11:53:52;;;;;;;;;6.20;6.20;;;;;18.72;71.83;99652.84;5106073;28;8831;-59
2023/10/12 11:56:22;;;;;;;;;6.00;6.00;;;;;18.69;72.60;99647.84;5112172;28;8890;-60
2023/10/12 11:58:55;;;;;;;;;7.00;6.00;;;;;18.70;72.51;99652.22;5096709;28;8834;-58
2023/10/12 12:01:27;;;;;;;;;5.80;4.40;;;;;18.69;72.31;99642.44;5092284;28;9503;-58
2023/10/12 12:03:55;;;;;;;;;9.00;8.60;;;;;18.70;72.01;99649.50;5091876;28;8811;-58
2023/10/12 12:06:25;;;;;;;;;6.60;6.60;;;;;18.72;71.81;99642.06;5096357;28;8846;-58
2023/10/12 12:08:59;;;;;;;;;10.60;8.80;;;;;18.73;71.89;99635.66;5096573;28;9593;-59
2023/10/12 12:11:31;;;;;;;;;6.60;6.00;;;;;18.77;71.93;99641.53;5095773;28;8834;-58
2023/10/12 12:13:59;;;;;;;;;9.80;6.80;;;;;18.77;71.59;99636.97;5096477;28;8838;-58
2023/10/12 12:16:27;;;;;;;;;7.00;5.40;;;;;18.79;71.42;99634.06;5096316;28;8840;-58
2023/10/12 12:18:55;;;;;;;;;9.80;7.00;;;;;18.82;71.36;99631.84;5096315;28;8830;-59
2023/10/12 12:21:31;;;;;;;;;5.20;5.20;;;;;18.85;71.75;99634.22;5096824;28;8830;-58
2023/10/12 12:24:01;;;;;;;;;7.60;6.60;;;;;18.87;71.43;99636.69;5095910;28;8850;-58
2023/10/12 12:26:33;;;;;;;;;4.00;4.00;;;;;18.86;71.50;99640.44;5095185;28;8826;-59
2023/10/12 12:29:05;;;;;;;;;7.00;6.40;;;;;18.83;71.33;99630.81;5095886;28;8976;-58
2023/10/12 12:31:32;;;;;;;;;6.40;6.00;;;;;18.83;71.65;99624.59;5095629;28;9852;-57
2023/10/12 12:34:08;;;;;;;;;3.40;3.00;;;;;18.83;71.41;99616.50;5096368;28;8822;-58
2023/10/12 12:36:38;;;;;;;;;7.40;6.40;;;;;18.82;71.69;99612.97;5095619;28;8830;-59
2023/10/12 12:39:11;;;;;;;;;7.80;6.80;;;;;18.82;71.64;99609.44;5091429;28;8826;-59
2023/10/12 12:41:39;;;;;;;;;8.60;7.20;;;;;18.83;71.40;99606.53;5096652;28;8846;-59
2023/10/12 12:44:10;;;;;;;;;5.40;5.20;;;;;18.83;71.76;99601.16;5095856;28;8838;-60
2023/10/12 12:46:38;;;;;;;;;3.20;3.20;;;;;18.80;71.96;99600.66;5095838;28;8960;-58